Language: 


Des rapports , des résumés tant et plus, au choix de chacun....


Données Historiques de Météogheer
Journalier Rapport pour Nil La, TWC- Unitée:  Métrique    Impériale   Les deux

Warning: A non-numeric value encountered in /datas/vol1/w4a123858/var/www/legheer.be/meteo3/wu/WU-History.php on line 1400

Warning: mktime() expects parameter 4 to be integer, string given in /datas/vol1/w4a123858/var/www/legheer.be/meteo3/wu/WU-History.php on line 1401

Warning: A non-numeric value encountered in /datas/vol1/w4a123858/var/www/legheer.be/meteo3/wu/WU-History.php on line 1400

Warning: mktime() expects parameter 4 to be integer, string given in /datas/vol1/w4a123858/var/www/legheer.be/meteo3/wu/WU-History.php on line 1401
Suivant Jour »
Journalier Hebdomadaire Mensuel Annuel Sur mesure
  Max: Min: Moyenne:
Température: 14.9 °C 10.6 °C 12.6 °C
Point de rosée: 11.0 °C 8.0 °C 9.3 °C
Humidité: 86% 72% 79%
Vent: 4.7km/h 0.0km/h 0.5km/h
Rafales: 9.3km/h - -
Vent- - West
Pression: 1011.1 hPa 1010.0 hPa -
Pluie: 0.0 mm    
Historical Graphs
 
 
Données tabulaires pour Nil La, TWC-
Heure Température Point de rosée Pression Vent Vent Rafales Humidité Pluie Taux (Horaire) Conditions
00:09 14.9 °C 10.0 °C 1011.1 hPa Calm   5.0 km/h 72% 0.0 mm
00:14 14.9 °C 10.0 °C 1011.1 hPa Calm   5.0 km/h 72% 0.0 mm
00:19 14.9 °C 10.0 °C 1011.1 hPa Calm   4.3 km/h 72% 0.0 mm
00:34 14.7 °C 10.0 °C 1011.1 hPa Calm   6.4 km/h 73% 0.0 mm
00:39 14.6 °C 11.0 °C 1011.1 hPa West 2.6 km/h 6.4 km/h 75% 0.0 mm
00:49 14.5 °C 10.0 °C 1011.1 hPa West 1.4 km/h 4.3 km/h 74% 0.0 mm
00:54 14.4 °C 10.0 °C 1011.1 hPa Calm   4.7 km/h 75% 0.0 mm
00:59 14.4 °C 10.0 °C 1011.1 hPa Calm   4.7 km/h 75% 0.0 mm
01:09 14.1 °C 10.0 °C 1011.1 hPa Calm   4.0 km/h 75% 0.0 mm
01:14 14.0 °C 10.0 °C 1011.1 hPa Calm   4.3 km/h 75% 0.0 mm
01:19 13.8 °C 10.0 °C 1011.1 hPa West 3.5 km/h 4.3 km/h 76% 0.0 mm
01:29 13.5 °C 10.0 °C 1010.0 hPa Calm   3.5 km/h 78% 0.0 mm
01:34 13.4 °C 9.0 °C 1010.0 hPa Calm     76% 0.0 mm
01:39 13.3 °C 10.0 °C 1010.0 hPa Calm     78% 0.0 mm
01:49 13.0 °C 9.0 °C 1010.0 hPa Calm   1.8 km/h 78% 0.0 mm
01:59 12.6 °C 9.0 °C 1011.1 hPa Calm     78% 0.0 mm
02:09 12.2 °C 9.0 °C 1011.1 hPa Calm     78% 0.0 mm
02:14 12.0 °C 9.0 °C 1011.1 hPa Calm     79% 0.0 mm
02:19 11.9 °C 9.0 °C 1011.1 hPa Calm     80% 0.0 mm
02:29 11.7 °C 9.0 °C 1011.1 hPa Calm     80% 0.0 mm
02:39 11.6 °C 9.0 °C 1011.1 hPa Calm     81% 0.0 mm
02:49 11.6 °C 9.0 °C 1011.1 hPa Calm   1.4 km/h 81% 0.0 mm
02:54 11.6 °C 9.0 °C 1011.1 hPa NW 4.7 km/h 4.7 km/h 83% 0.0 mm
02:59 11.6 °C 9.0 °C 1011.1 hPa Calm   4.7 km/h 82% 0.0 mm
03:09 11.7 °C 9.0 °C 1011.1 hPa Calm   5.5 km/h 83% 0.0 mm
03:19 11.7 °C 9.0 °C 1011.1 hPa West 4.0 km/h 6.9 km/h 84% 0.0 mm
03:24 11.8 °C 9.0 °C 1011.1 hPa Calm   9.3 km/h 84% 0.0 mm
03:29 11.7 °C 9.0 °C 1011.1 hPa Calm   9.3 km/h 83% 0.0 mm
03:34 11.7 °C 9.0 °C 1011.1 hPa Calm   4.7 km/h 83% 0.0 mm
03:39 11.6 °C 9.0 °C 1011.1 hPa Calm   4.7 km/h 82% 0.0 mm
03:49 11.3 °C 9.0 °C 1011.1 hPa Calm     82% 0.0 mm
03:54 11.1 °C 8.0 °C 1011.1 hPa Calm     82% 0.0 mm
03:59 10.9 °C 8.0 °C 1011.1 hPa Calm     82% 0.0 mm
04:09 10.9 °C 9.0 °C 1011.1 hPa Calm   3.5 km/h 86% 0.0 mm
04:14 10.8 °C 8.0 °C 1011.1 hPa Calm   3.5 km/h 83% 0.0 mm
04:19 10.6 °C 8.0 °C 1011.1 hPa Calm     83% 0.0 mm
Données Historique de Météo Turbie

Mise a jour : 22/05/2018 04:20:13
Généré par Cumulus 1.9.4 (1099)